sensor_id;sensor_type;location;lat;lon;timestamp;P1;durP1;ratioP1;P2;durP2;ratioP2
80101;SDS011;69407;44.966;19.622;2024-01-30T00:02:11;76.82;;;32.67;;
80101;SDS011;69407;44.966;19.622;2024-01-30T00:04:37;76.38;;;33.67;;
80101;SDS011;69407;44.966;19.622;2024-01-30T00:07:02;73.63;;;32.53;;
80101;SDS011;69407;44.966;19.622;2024-01-30T00:09:28;74.43;;;32.72;;
80101;SDS011;69407;44.966;19.622;2024-01-30T00:11:54;71.63;;;29.15;;
80101;SDS011;69407;44.966;19.622;2024-01-30T00:14:19;69.65;;;28.23;;
80101;SDS011;69407;44.966;19.622;2024-01-30T00:16:44;66.70;;;26.55;;
80101;SDS011;69407;44.966;19.622;2024-01-30T00:19:10;68.43;;;28.70;;
80101;SDS011;69407;44.966;19.622;2024-01-30T00:21:35;73.88;;;27.60;;
80101;SDS011;69407;44.966;19.622;2024-01-30T00:24:01;80.17;;;33.53;;
80101;SDS011;69407;44.966;19.622;2024-01-30T00:26:26;89.28;;;34.47;;
80101;SDS011;69407;44.966;19.622;2024-01-30T00:28:51;90.32;;;32.10;;
80101;SDS011;69407;44.966;19.622;2024-01-30T00:31:17;73.40;;;27.85;;
80101;SDS011;69407;44.966;19.622;2024-01-30T00:33:42;68.72;;;28.10;;
80101;SDS011;69407;44.966;19.622;2024-01-30T00:36:08;52.92;;;23.77;;
80101;SDS011;69407;44.966;19.622;2024-01-30T00:38:33;57.63;;;23.52;;
80101;SDS011;69407;44.966;19.622;2024-01-30T00:40:59;60.92;;;25.52;;
80101;SDS011;69407;44.966;19.622;2024-01-30T00:43:24;73.43;;;29.10;;
80101;SDS011;69407;44.966;19.622;2024-01-30T00:45:52;75.07;;;28.77;;
80101;SDS011;69407;44.966;19.622;2024-01-30T00:48:18;69.93;;;28.52;;
80101;SDS011;69407;44.966;19.622;2024-01-30T00:50:43;78.15;;;30.52;;
80101;SDS011;69407;44.966;19.622;2024-01-30T00:53:08;62.83;;;28.33;;
80101;SDS011;69407;44.966;19.622;2024-01-30T00:55:34;53.45;;;22.55;;
80101;SDS011;69407;44.966;19.622;2024-01-30T00:57:59;56.97;;;24.00;;
80101;SDS011;69407;44.966;19.622;2024-01-30T01:00:24;51.20;;;21.37;;
80101;SDS011;69407;44.966;19.622;2024-01-30T01:02:54;44.10;;;20.42;;
80101;SDS011;69407;44.966;19.622;2024-01-30T01:05:19;41.13;;;17.50;;
80101;SDS011;69407;44.966;19.622;2024-01-30T01:07:44;36.63;;;15.60;;
80101;SDS011;69407;44.966;19.622;2024-01-30T01:10:12;34.92;;;14.95;;
80101;SDS011;69407;44.966;19.622;2024-01-30T01:12:38;39.83;;;13.50;;
80101;SDS011;69407;44.966;19.622;2024-01-30T01:15:04;29.08;;;14.55;;
80101;SDS011;69407;44.966;19.622;2024-01-30T01:17:30;31.23;;;14.50;;
80101;SDS011;69407;44.966;19.622;2024-01-30T01:19:55;33.53;;;14.55;;
80101;SDS011;69407;44.966;19.622;2024-01-30T01:22:20;30.33;;;13.17;;
80101;SDS011;69407;44.966;19.622;2024-01-30T01:24:46;33.38;;;14.30;;
80101;SDS011;69407;44.966;19.622;2024-01-30T01:27:11;34.43;;;15.67;;
80101;SDS011;69407;44.966;19.622;2024-01-30T01:29:36;59.85;;;24.42;;
80101;SDS011;69407;44.966;19.622;2024-01-30T01:32:01;64.50;;;25.67;;
80101;SDS011;69407;44.966;19.622;2024-01-30T01:34:27;53.33;;;23.33;;
80101;SDS011;69407;44.966;19.622;2024-01-30T01:36:52;50.20;;;21.73;;
80101;SDS011;69407;44.966;19.622;2024-01-30T01:39:20;65.68;;;24.52;;
80101;SDS011;69407;44.966;19.622;2024-01-30T01:41:45;60.33;;;20.27;;
80101;SDS011;69407;44.966;19.622;2024-01-30T01:44:11;38.53;;;14.32;;
80101;SDS011;69407;44.966;19.622;2024-01-30T01:46:36;32.75;;;11.75;;
80101;SDS011;69407;44.966;19.622;2024-01-30T01:49:02;32.28;;;12.82;;
80101;SDS011;69407;44.966;19.622;2024-01-30T01:51:28;30.23;;;12.65;;
80101;SDS011;69407;44.966;19.622;2024-01-30T01:53:54;33.15;;;12.98;;
80101;SDS011;69407;44.966;19.622;2024-01-30T01:56:21;25.05;;;10.52;;
80101;SDS011;69407;44.966;19.622;2024-01-30T01:58:46;25.50;;;11.80;;
80101;SDS011;69407;44.966;19.622;2024-01-30T02:01:13;21.90;;;9.45;;
80101;SDS011;69407;44.966;19.622;2024-01-30T02:03:38;22.08;;;9.45;;
80101;SDS011;69407;44.966;19.622;2024-01-30T02:06:04;22.23;;;10.13;;
80101;SDS011;69407;44.966;19.622;2024-01-30T02:08:29;20.00;;;8.75;;
80101;SDS011;69407;44.966;19.622;2024-01-30T02:10:56;19.63;;;9.80;;
80101;SDS011;69407;44.966;19.622;2024-01-30T02:13:22;21.27;;;9.40;;
80101;SDS011;69407;44.966;19.622;2024-01-30T02:15:50;21.35;;;9.15;;
80101;SDS011;69407;44.966;19.622;2024-01-30T02:18:16;20.63;;;8.70;;
80101;SDS011;69407;44.966;19.622;2024-01-30T02:20:41;27.43;;;8.23;;
80101;SDS011;69407;44.966;19.622;2024-01-30T02:23:07;22.58;;;8.55;;
80101;SDS011;69407;44.966;19.622;2024-01-30T02:25:37;18.60;;;8.88;;
80101;SDS011;69407;44.966;19.622;2024-01-30T02:30:28;18.45;;;8.30;;
80101;SDS011;69407;44.966;19.622;2024-01-30T02:32:53;21.00;;;9.97;;
80101;SDS011;69407;44.966;19.622;2024-01-30T02:35:18;18.70;;;8.80;;
80101;SDS011;69407;44.966;19.622;2024-01-30T02:37:43;17.57;;;8.57;;
80101;SDS011;69407;44.966;19.622;2024-01-30T02:40:09;18.63;;;8.70;;
80101;SDS011;69407;44.966;19.622;2024-01-30T02:42:34;19.17;;;7.65;;
80101;SDS011;69407;44.966;19.622;2024-01-30T02:44:59;16.23;;;7.10;;
80101;SDS011;69407;44.966;19.622;2024-01-30T02:47:25;24.58;;;8.20;;
80101;SDS011;69407;44.966;19.622;2024-01-30T02:49:50;20.45;;;9.23;;
80101;SDS011;69407;44.966;19.622;2024-01-30T02:52:15;20.70;;;8.57;;
80101;SDS011;69407;44.966;19.622;2024-01-30T02:54:41;20.60;;;8.53;;
80101;SDS011;69407;44.966;19.622;2024-01-30T02:57:06;21.63;;;8.70;;
80101;SDS011;69407;44.966;19.622;2024-01-30T02:59:31;24.93;;;9.47;;
80101;SDS011;69407;44.966;19.622;2024-01-30T03:01:58;21.60;;;9.88;;
80101;SDS011;69407;44.966;19.622;2024-01-30T03:04:24;21.52;;;9.77;;
80101;SDS011;69407;44.966;19.622;2024-01-30T03:06:49;23.20;;;8.88;;
80101;SDS011;69407;44.966;19.622;2024-01-30T03:09:16;20.57;;;8.33;;
80101;SDS011;69407;44.966;19.622;2024-01-30T03:11:41;21.15;;;8.93;;
80101;SDS011;69407;44.966;19.622;2024-01-30T03:14:07;22.87;;;10.17;;
80101;SDS011;69407;44.966;19.622;2024-01-30T03:16:33;19.38;;;9.80;;
80101;SDS011;69407;44.966;19.622;2024-01-30T03:18:58;21.77;;;9.00;;
80101;SDS011;69407;44.966;19.622;2024-01-30T03:21:23;18.60;;;8.75;;
80101;SDS011;69407;44.966;19.622;2024-01-30T03:23:49;22.83;;;9.47;;
80101;SDS011;69407;44.966;19.622;2024-01-30T03:26:14;20.67;;;9.80;;
80101;SDS011;69407;44.966;19.622;2024-01-30T03:28:40;22.88;;;9.82;;
80101;SDS011;69407;44.966;19.622;2024-01-30T03:31:06;23.25;;;9.40;;
80101;SDS011;69407;44.966;19.622;2024-01-30T03:33:31;22.60;;;9.23;;
80101;SDS011;69407;44.966;19.622;2024-01-30T03:35:57;25.40;;;10.70;;
80101;SDS011;69407;44.966;19.622;2024-01-30T03:38:22;26.03;;;10.67;;
80101;SDS011;69407;44.966;19.622;2024-01-30T03:40:47;22.20;;;10.20;;
80101;SDS011;69407;44.966;19.622;2024-01-30T03:43:12;24.37;;;11.07;;
80101;SDS011;69407;44.966;19.622;2024-01-30T03:45:38;26.17;;;11.63;;
80101;SDS011;69407;44.966;19.622;2024-01-30T03:48:03;28.55;;;12.40;;
80101;SDS011;69407;44.966;19.622;2024-01-30T03:50:29;34.38;;;13.13;;
80101;SDS011;69407;44.966;19.622;2024-01-30T03:52:54;23.15;;;11.30;;
80101;SDS011;69407;44.966;19.622;2024-01-30T03:55:19;30.40;;;13.53;;
80101;SDS011;69407;44.966;19.622;2024-01-30T03:57:45;26.10;;;12.83;;
80101;SDS011;69407;44.966;19.622;2024-01-30T04:00:10;34.30;;;15.50;;
80101;SDS011;69407;44.966;19.622;2024-01-30T04:02:35;32.78;;;15.85;;
80101;SDS011;69407;44.966;19.622;2024-01-30T04:05:01;30.00;;;14.80;;
80101;SDS011;69407;44.966;19.622;2024-01-30T04:07:26;36.37;;;14.57;;
80101;SDS011;69407;44.966;19.622;2024-01-30T04:09:51;34.07;;;15.40;;
80101;SDS011;69407;44.966;19.622;2024-01-30T04:12:17;36.50;;;14.38;;
80101;SDS011;69407;44.966;19.622;2024-01-30T04:14:42;28.87;;;15.10;;
80101;SDS011;69407;44.966;19.622;2024-01-30T04:17:07;27.90;;;13.70;;
80101;SDS011;69407;44.966;19.622;2024-01-30T04:19:32;31.75;;;16.15;;
80101;SDS011;69407;44.966;19.622;2024-01-30T04:21:58;38.35;;;17.65;;
80101;SDS011;69407;44.966;19.622;2024-01-30T04:24:23;38.20;;;16.53;;
80101;SDS011;69407;44.966;19.622;2024-01-30T04:26:48;34.50;;;17.33;;
80101;SDS011;69407;44.966;19.622;2024-01-30T04:29:14;38.83;;;19.03;;
80101;SDS011;69407;44.966;19.622;2024-01-30T04:31:39;39.07;;;17.77;;
80101;SDS011;69407;44.966;19.622;2024-01-30T04:34:04;33.13;;;16.50;;
80101;SDS011;69407;44.966;19.622;2024-01-30T04:36:29;33.92;;;17.67;;
80101;SDS011;69407;44.966;19.622;2024-01-30T04:38:55;42.40;;;20.87;;
80101;SDS011;69407;44.966;19.622;2024-01-30T04:41:20;44.43;;;20.93;;
80101;SDS011;69407;44.966;19.622;2024-01-30T04:43:45;45.50;;;22.50;;
80101;SDS011;69407;44.966;19.622;2024-01-30T04:46:11;35.80;;;16.63;;
80101;SDS011;69407;44.966;19.622;2024-01-30T04:48:36;38.60;;;17.00;;
80101;SDS011;69407;44.966;19.622;2024-01-30T04:51:01;35.58;;;16.85;;
80101;SDS011;69407;44.966;19.622;2024-01-30T04:53:29;37.05;;;15.38;;
80101;SDS011;69407;44.966;19.622;2024-01-30T04:55:54;29.45;;;14.75;;
80101;SDS011;69407;44.966;19.622;2024-01-30T04:58:20;34.60;;;14.53;;
80101;SDS011;69407;44.966;19.622;2024-01-30T05:00:45;31.53;;;13.83;;
80101;SDS011;69407;44.966;19.622;2024-01-30T05:03:12;30.95;;;16.45;;
80101;SDS011;69407;44.966;19.622;2024-01-30T05:05:38;33.58;;;15.18;;
80101;SDS011;69407;44.966;19.622;2024-01-30T05:08:03;35.73;;;15.73;;
80101;SDS011;69407;44.966;19.622;2024-01-30T05:10:29;35.35;;;15.88;;
80101;SDS011;69407;44.966;19.622;2024-01-30T05:12:54;36.72;;;18.73;;
80101;SDS011;69407;44.966;19.622;2024-01-30T05:15:19;36.97;;;15.17;;
80101;SDS011;69407;44.966;19.622;2024-01-30T05:17:45;32.92;;;17.00;;
80101;SDS011;69407;44.966;19.622;2024-01-30T05:20:10;35.80;;;16.45;;
80101;SDS011;69407;44.966;19.622;2024-01-30T05:22:36;33.33;;;16.13;;
80101;SDS011;69407;44.966;19.622;2024-01-30T05:25:01;40.90;;;18.35;;
80101;SDS011;69407;44.966;19.622;2024-01-30T05:27:26;33.20;;;15.50;;
80101;SDS011;69407;44.966;19.622;2024-01-30T05:29:52;38.30;;;17.40;;
80101;SDS011;69407;44.966;19.622;2024-01-30T05:32:17;32.80;;;16.40;;
80101;SDS011;69407;44.966;19.622;2024-01-30T05:34:42;39.67;;;17.30;;
80101;SDS011;69407;44.966;19.622;2024-01-30T05:37:07;44.43;;;18.17;;
80101;SDS011;69407;44.966;19.622;2024-01-30T05:39:33;36.42;;;18.20;;
80101;SDS011;69407;44.966;19.622;2024-01-30T05:41:58;35.45;;;16.95;;
80101;SDS011;69407;44.966;19.622;2024-01-30T05:44:24;39.35;;;17.35;;
80101;SDS011;69407;44.966;19.622;2024-01-30T05:46:49;40.47;;;18.90;;
80101;SDS011;69407;44.966;19.622;2024-01-30T05:49:14;36.38;;;17.48;;
80101;SDS011;69407;44.966;19.622;2024-01-30T05:51:40;36.83;;;17.53;;
80101;SDS011;69407;44.966;19.622;2024-01-30T05:54:05;39.85;;;16.75;;
80101;SDS011;69407;44.966;19.622;2024-01-30T05:56:30;36.00;;;16.07;;
80101;SDS011;69407;44.966;19.622;2024-01-30T05:58:55;34.33;;;16.23;;
80101;SDS011;69407;44.966;19.622;2024-01-30T06:01:21;37.10;;;18.40;;
80101;SDS011;69407;44.966;19.622;2024-01-30T06:03:46;38.70;;;19.13;;
80101;SDS011;69407;44.966;19.622;2024-01-30T06:06:11;44.17;;;19.90;;
80101;SDS011;69407;44.966;19.622;2024-01-30T06:08:37;34.63;;;15.65;;
80101;SDS011;69407;44.966;19.622;2024-01-30T06:11:02;43.20;;;17.33;;
80101;SDS011;69407;44.966;19.622;2024-01-30T06:13:27;43.78;;;18.75;;
80101;SDS011;69407;44.966;19.622;2024-01-30T06:15:52;41.85;;;16.67;;
80101;SDS011;69407;44.966;19.622;2024-01-30T06:18:18;44.97;;;16.77;;
80101;SDS011;69407;44.966;19.622;2024-01-30T06:20:43;51.78;;;18.23;;
80101;SDS011;69407;44.966;19.622;2024-01-30T06:23:08;65.50;;;18.70;;
80101;SDS011;69407;44.966;19.622;2024-01-30T06:25:34;45.45;;;18.13;;
80101;SDS011;69407;44.966;19.622;2024-01-30T06:27:59;72.90;;;19.47;;
80101;SDS011;69407;44.966;19.622;2024-01-30T06:30:24;52.10;;;17.00;;
80101;SDS011;69407;44.966;19.622;2024-01-30T06:32:50;63.43;;;19.07;;
80101;SDS011;69407;44.966;19.622;2024-01-30T06:35:16;52.30;;;18.60;;
80101;SDS011;69407;44.966;19.622;2024-01-30T06:37:42;61.40;;;18.38;;
80101;SDS011;69407;44.966;19.622;2024-01-30T06:40:08;54.45;;;18.00;;
80101;SDS011;69407;44.966;19.622;2024-01-30T06:42:33;73.80;;;18.95;;
80101;SDS011;69407;44.966;19.622;2024-01-30T06:44:58;68.07;;;20.33;;
80101;SDS011;69407;44.966;19.622;2024-01-30T06:47:24;67.40;;;19.83;;
80101;SDS011;69407;44.966;19.622;2024-01-30T06:49:49;60.22;;;19.88;;
80101;SDS011;69407;44.966;19.622;2024-01-30T06:52:14;60.47;;;18.00;;
80101;SDS011;69407;44.966;19.622;2024-01-30T06:54:40;50.07;;;17.07;;
80101;SDS011;69407;44.966;19.622;2024-01-30T06:57:05;76.90;;;18.35;;
80101;SDS011;69407;44.966;19.622;2024-01-30T06:59:34;88.57;;;22.33;;
80101;SDS011;69407;44.966;19.622;2024-01-30T07:01:59;74.75;;;18.95;;
80101;SDS011;69407;44.966;19.622;2024-01-30T07:04:24;82.93;;;22.67;;
80101;SDS011;69407;44.966;19.622;2024-01-30T07:06:50;102.67;;;21.13;;
80101;SDS011;69407;44.966;19.622;2024-01-30T07:09:15;76.53;;;21.57;;
80101;SDS011;69407;44.966;19.622;2024-01-30T07:11:40;54.53;;;17.83;;
80101;SDS011;69407;44.966;19.622;2024-01-30T07:14:05;62.47;;;18.83;;
80101;SDS011;69407;44.966;19.622;2024-01-30T07:16:31;86.05;;;20.60;;
80101;SDS011;69407;44.966;19.622;2024-01-30T07:18:56;84.72;;;22.42;;
80101;SDS011;69407;44.966;19.622;2024-01-30T07:21:21;66.47;;;21.03;;
80101;SDS011;69407;44.966;19.622;2024-01-30T07:23:52;73.10;;;22.40;;
80101;SDS011;69407;44.966;19.622;2024-01-30T07:26:17;62.53;;;22.17;;
80101;SDS011;69407;44.966;19.622;2024-01-30T07:28:43;73.67;;;21.97;;
80101;SDS011;69407;44.966;19.622;2024-01-30T07:31:09;89.72;;;25.73;;
80101;SDS011;69407;44.966;19.622;2024-01-30T07:33:34;73.23;;;22.47;;
80101;SDS011;69407;44.966;19.622;2024-01-30T07:35:59;113.07;;;26.40;;
80101;SDS011;69407;44.966;19.622;2024-01-30T07:38:24;102.43;;;25.77;;
80101;SDS011;69407;44.966;19.622;2024-01-30T07:40:50;83.67;;;26.07;;
80101;SDS011;69407;44.966;19.622;2024-01-30T07:43:15;76.63;;;25.05;;
80101;SDS011;69407;44.966;19.622;2024-01-30T07:45:40;96.97;;;27.02;;
80101;SDS011;69407;44.966;19.622;2024-01-30T07:48:06;64.22;;;24.63;;
80101;SDS011;69407;44.966;19.622;2024-01-30T07:50:31;76.00;;;25.27;;
80101;SDS011;69407;44.966;19.622;2024-01-30T07:52:58;77.65;;;22.77;;
80101;SDS011;69407;44.966;19.622;2024-01-30T07:55:24;70.93;;;23.40;;
80101;SDS011;69407;44.966;19.622;2024-01-30T07:57:52;64.25;;;25.50;;
80101;SDS011;69407;44.966;19.622;2024-01-30T08:00:18;64.78;;;26.05;;
80101;SDS011;69407;44.966;19.622;2024-01-30T08:02:53;61.38;;;26.60;;
80101;SDS011;69407;44.966;19.622;2024-01-30T08:05:20;56.67;;;24.48;;
80101;SDS011;69407;44.966;19.622;2024-01-30T08:07:47;83.95;;;27.08;;
80101;SDS011;69407;44.966;19.622;2024-01-30T08:10:12;80.63;;;28.88;;
80101;SDS011;69407;44.966;19.622;2024-01-30T08:12:38;63.50;;;26.45;;
80101;SDS011;69407;44.966;19.622;2024-01-30T08:15:04;66.10;;;27.65;;
80101;SDS011;69407;44.966;19.622;2024-01-30T08:17:29;87.65;;;31.55;;
80101;SDS011;69407;44.966;19.622;2024-01-30T08:19:54;77.63;;;30.57;;
80101;SDS011;69407;44.966;19.622;2024-01-30T08:22:20;70.40;;;30.80;;
80101;SDS011;69407;44.966;19.622;2024-01-30T08:24:45;58.13;;;26.63;;
80101;SDS011;69407;44.966;19.622;2024-01-30T08:27:10;80.97;;;32.13;;
80101;SDS011;69407;44.966;19.622;2024-01-30T08:29:37;87.55;;;31.90;;
80101;SDS011;69407;44.966;19.622;2024-01-30T08:32:02;102.70;;;35.83;;
80101;SDS011;69407;44.966;19.622;2024-01-30T08:34:27;83.15;;;33.17;;
80101;SDS011;69407;44.966;19.622;2024-01-30T08:36:53;62.47;;;25.52;;
80101;SDS011;69407;44.966;19.622;2024-01-30T08:39:18;70.60;;;27.33;;
80101;SDS011;69407;44.966;19.622;2024-01-30T08:41:44;59.58;;;24.15;;
80101;SDS011;69407;44.966;19.622;2024-01-30T08:44:09;54.33;;;24.67;;
80101;SDS011;69407;44.966;19.622;2024-01-30T08:46:36;63.28;;;26.98;;
80101;SDS011;69407;44.966;19.622;2024-01-30T08:49:01;60.25;;;26.50;;
80101;SDS011;69407;44.966;19.622;2024-01-30T08:51:26;63.90;;;28.08;;
80101;SDS011;69407;44.966;19.622;2024-01-30T08:53:52;60.27;;;27.30;;
80101;SDS011;69407;44.966;19.622;2024-01-30T08:56:18;66.68;;;32.65;;
80101;SDS011;69407;44.966;19.622;2024-01-30T08:58:44;62.47;;;28.73;;
80101;SDS011;69407;44.966;19.622;2024-01-30T09:01:09;58.97;;;27.30;;
80101;SDS011;69407;44.966;19.622;2024-01-30T09:03:34;60.80;;;27.93;;
80101;SDS011;69407;44.966;19.622;2024-01-30T09:06:00;61.15;;;28.73;;
80101;SDS011;69407;44.966;19.622;2024-01-30T09:08:25;62.43;;;31.57;;
80101;SDS011;69407;44.966;19.622;2024-01-30T09:10:50;57.83;;;27.40;;
80101;SDS011;69407;44.966;19.622;2024-01-30T09:13:15;72.03;;;33.10;;
80101;SDS011;69407;44.966;19.622;2024-01-30T09:15:41;58.40;;;28.57;;
80101;SDS011;69407;44.966;19.622;2024-01-30T09:18:06;95.38;;;39.92;;
80101;SDS011;69407;44.966;19.622;2024-01-30T09:20:32;99.63;;;39.20;;
80101;SDS011;69407;44.966;19.622;2024-01-30T09:22:57;114.90;;;46.07;;
80101;SDS011;69407;44.966;19.622;2024-01-30T09:25:22;87.83;;;45.17;;
80101;SDS011;69407;44.966;19.622;2024-01-30T09:27:48;82.83;;;40.20;;
80101;SDS011;69407;44.966;19.622;2024-01-30T09:30:14;66.00;;;33.42;;
80101;SDS011;69407;44.966;19.622;2024-01-30T09:32:39;66.85;;;32.90;;
80101;SDS011;69407;44.966;19.622;2024-01-30T09:35:05;76.63;;;36.85;;
80101;SDS011;69407;44.966;19.622;2024-01-30T09:37:31;69.60;;;35.08;;
80101;SDS011;69407;44.966;19.622;2024-01-30T09:39:56;55.83;;;30.97;;
80101;SDS011;69407;44.966;19.622;2024-01-30T09:47:14;53.63;;;28.30;;
80101;SDS011;69407;44.966;19.622;2024-01-30T09:49:41;44.05;;;27.48;;
80101;SDS011;69407;44.966;19.622;2024-01-30T09:52:07;44.95;;;26.92;;
80101;SDS011;69407;44.966;19.622;2024-01-30T09:54:33;42.65;;;27.00;;
80101;SDS011;69407;44.966;19.622;2024-01-30T09:56:59;45.53;;;27.73;;
80101;SDS011;69407;44.966;19.622;2024-01-30T09:59:24;49.50;;;31.43;;
80101;SDS011;69407;44.966;19.622;2024-01-30T10:01:50;40.35;;;26.40;;
80101;SDS011;69407;44.966;19.622;2024-01-30T10:04:15;52.78;;;30.10;;
80101;SDS011;69407;44.966;19.622;2024-01-30T10:06:40;52.33;;;30.80;;
80101;SDS011;69407;44.966;19.622;2024-01-30T10:09:06;46.63;;;26.70;;
80101;SDS011;69407;44.966;19.622;2024-01-30T10:11:32;48.55;;;27.98;;
80101;SDS011;69407;44.966;19.622;2024-01-30T10:13:57;48.60;;;26.63;;
80101;SDS011;69407;44.966;19.622;2024-01-30T10:16:22;54.75;;;30.40;;
80101;SDS011;69407;44.966;19.622;2024-01-30T10:18:48;56.05;;;30.27;;
80101;SDS011;69407;44.966;19.622;2024-01-30T10:21:14;48.83;;;28.17;;
80101;SDS011;69407;44.966;19.622;2024-01-30T10:23:39;50.90;;;29.83;;
80101;SDS011;69407;44.966;19.622;2024-01-30T10:26:04;49.38;;;29.77;;
80101;SDS011;69407;44.966;19.622;2024-01-30T10:28:30;55.50;;;34.65;;
80101;SDS011;69407;44.966;19.622;2024-01-30T10:30:59;42.03;;;25.17;;
80101;SDS011;69407;44.966;19.622;2024-01-30T10:33:28;47.78;;;28.15;;
80101;SDS011;69407;44.966;19.622;2024-01-30T10:35:59;45.20;;;31.45;;
80101;SDS011;69407;44.966;19.622;2024-01-30T10:38:25;49.78;;;32.47;;
80101;SDS011;69407;44.966;19.622;2024-01-30T10:40:52;45.15;;;28.52;;
80101;SDS011;69407;44.966;19.622;2024-01-30T10:43:19;45.38;;;30.52;;
80101;SDS011;69407;44.966;19.622;2024-01-30T10:45:46;42.00;;;27.10;;
80101;SDS011;69407;44.966;19.622;2024-01-30T10:48:14;53.58;;;31.73;;
80101;SDS011;69407;44.966;19.622;2024-01-30T10:50:41;47.08;;;30.27;;
80101;SDS011;69407;44.966;19.622;2024-01-30T10:53:07;41.78;;;29.30;;
80101;SDS011;69407;44.966;19.622;2024-01-30T10:55:33;36.22;;;22.77;;
80101;SDS011;69407;44.966;19.622;2024-01-30T10:57:58;40.80;;;25.70;;
80101;SDS011;69407;44.966;19.622;2024-01-30T11:00:24;39.63;;;24.13;;
80101;SDS011;69407;44.966;19.622;2024-01-30T11:02:51;45.13;;;25.80;;
80101;SDS011;69407;44.966;19.622;2024-01-30T11:05:23;38.08;;;23.52;;
80101;SDS011;69407;44.966;19.622;2024-01-30T11:07:49;41.72;;;24.10;;
80101;SDS011;69407;44.966;19.622;2024-01-30T11:10:14;38.50;;;24.50;;
80101;SDS011;69407;44.966;19.622;2024-01-30T11:12:40;35.50;;;20.48;;
80101;SDS011;69407;44.966;19.622;2024-01-30T11:20:15;36.95;;;20.15;;
80101;SDS011;69407;44.966;19.622;2024-01-30T11:22:47;37.53;;;21.38;;
80101;SDS011;69407;44.966;19.622;2024-01-30T11:25:13;40.72;;;23.50;;
80101;SDS011;69407;44.966;19.622;2024-01-30T11:27:39;42.58;;;20.88;;
80101;SDS011;69407;44.966;19.622;2024-01-30T11:30:05;47.83;;;25.77;;
80101;SDS011;69407;44.966;19.622;2024-01-30T11:32:30;73.38;;;33.80;;
80101;SDS011;69407;44.966;19.622;2024-01-30T11:34:56;54.67;;;27.60;;
80101;SDS011;69407;44.966;19.622;2024-01-30T11:37:21;41.63;;;25.38;;
80101;SDS011;69407;44.966;19.622;2024-01-30T11:39:50;36.50;;;19.92;;
80101;SDS011;69407;44.966;19.622;2024-01-30T11:42:16;38.78;;;22.77;;
80101;SDS011;69407;44.966;19.622;2024-01-30T11:44:45;34.33;;;19.27;;
80101;SDS011;69407;44.966;19.622;2024-01-30T11:47:11;31.75;;;17.90;;
80101;SDS011;69407;44.966;19.622;2024-01-30T11:49:36;36.85;;;21.63;;
80101;SDS011;69407;44.966;19.622;2024-01-30T11:52:01;28.00;;;15.98;;
80101;SDS011;69407;44.966;19.622;2024-01-30T11:54:27;25.60;;;18.15;;
80101;SDS011;69407;44.966;19.622;2024-01-30T11:56:52;20.45;;;13.25;;
80101;SDS011;69407;44.966;19.622;2024-01-30T11:59:18;22.27;;;13.07;;
80101;SDS011;69407;44.966;19.622;2024-01-30T12:01:43;22.02;;;12.70;;
80101;SDS011;69407;44.966;19.622;2024-01-30T12:04:09;21.52;;;14.43;;
80101;SDS011;69407;44.966;19.622;2024-01-30T12:06:34;12.18;;;8.13;;
80101;SDS011;69407;44.966;19.622;2024-01-30T12:09:00;13.77;;;7.38;;
80101;SDS011;69407;44.966;19.622;2024-01-30T12:11:26;11.35;;;7.13;;
80101;SDS011;69407;44.966;19.622;2024-01-30T12:13:52;13.13;;;8.43;;
80101;SDS011;69407;44.966;19.622;2024-01-30T12:16:18;12.38;;;6.72;;
80101;SDS011;69407;44.966;19.622;2024-01-30T12:18:43;10.82;;;6.30;;
80101;SDS011;69407;44.966;19.622;2024-01-30T12:21:09;15.68;;;9.10;;
80101;SDS011;69407;44.966;19.622;2024-01-30T12:23:34;13.18;;;6.50;;
80101;SDS011;69407;44.966;19.622;2024-01-30T12:26:00;13.35;;;6.07;;
80101;SDS011;69407;44.966;19.622;2024-01-30T12:28:26;15.95;;;7.45;;
80101;SDS011;69407;44.966;19.622;2024-01-30T12:30:55;13.25;;;7.35;;
80101;SDS011;69407;44.966;19.622;2024-01-30T12:33:20;14.65;;;7.88;;
80101;SDS011;69407;44.966;19.622;2024-01-30T12:35:46;13.05;;;6.55;;
80101;SDS011;69407;44.966;19.622;2024-01-30T12:38:13;11.13;;;6.25;;
80101;SDS011;69407;44.966;19.622;2024-01-30T12:40:38;9.63;;;5.97;;
80101;SDS011;69407;44.966;19.622;2024-01-30T12:43:04;10.77;;;5.97;;
80101;SDS011;69407;44.966;19.622;2024-01-30T12:45:29;15.48;;;7.35;;
80101;SDS011;69407;44.966;19.622;2024-01-30T12:47:55;11.85;;;7.75;;
80101;SDS011;69407;44.966;19.622;2024-01-30T12:50:20;20.52;;;10.50;;
80101;SDS011;69407;44.966;19.622;2024-01-30T12:52:45;24.33;;;13.07;;
80101;SDS011;69407;44.966;19.622;2024-01-30T12:55:11;28.98;;;14.45;;
80101;SDS011;69407;44.966;19.622;2024-01-30T12:57:36;19.65;;;11.00;;
80101;SDS011;69407;44.966;19.622;2024-01-30T13:00:01;12.18;;;6.72;;
80101;SDS011;69407;44.966;19.622;2024-01-30T13:02:27;23.88;;;13.05;;
80101;SDS011;69407;44.966;19.622;2024-01-30T13:04:59;46.72;;;26.05;;
80101;SDS011;69407;44.966;19.622;2024-01-30T13:07:25;17.85;;;9.13;;
80101;SDS011;69407;44.966;19.622;2024-01-30T13:09:50;30.02;;;12.85;;
80101;SDS011;69407;44.966;19.622;2024-01-30T13:12:15;31.15;;;14.95;;
80101;SDS011;69407;44.966;19.622;2024-01-30T13:14:41;12.52;;;6.00;;
80101;SDS011;69407;44.966;19.622;2024-01-30T13:17:06;40.00;;;21.60;;
80101;SDS011;69407;44.966;19.622;2024-01-30T13:19:31;13.68;;;7.30;;
80101;SDS011;69407;44.966;19.622;2024-01-30T13:21:57;34.85;;;17.92;;
80101;SDS011;69407;44.966;19.622;2024-01-30T13:24:22;18.02;;;10.02;;
80101;SDS011;69407;44.966;19.622;2024-01-30T13:26:47;16.50;;;8.70;;
80101;SDS011;69407;44.966;19.622;2024-01-30T13:29:14;26.25;;;13.00;;
80101;SDS011;69407;44.966;19.622;2024-01-30T13:31:39;14.15;;;8.77;;
80101;SDS011;69407;44.966;19.622;2024-01-30T13:34:04;10.50;;;6.10;;
80101;SDS011;69407;44.966;19.622;2024-01-30T13:36:31;12.27;;;6.88;;
80101;SDS011;69407;44.966;19.622;2024-01-30T13:38:57;7.45;;;3.95;;
80101;SDS011;69407;44.966;19.622;2024-01-30T13:41:23;13.63;;;7.13;;
80101;SDS011;69407;44.966;19.622;2024-01-30T13:43:48;12.32;;;5.97;;
80101;SDS011;69407;44.966;19.622;2024-01-30T13:46:14;11.98;;;6.20;;
80101;SDS011;69407;44.966;19.622;2024-01-30T13:48:39;8.82;;;4.57;;
80101;SDS011;69407;44.966;19.622;2024-01-30T13:51:04;8.60;;;4.53;;
80101;SDS011;69407;44.966;19.622;2024-01-30T13:53:30;8.23;;;4.18;;
80101;SDS011;69407;44.966;19.622;2024-01-30T13:55:55;8.30;;;4.18;;
80101;SDS011;69407;44.966;19.622;2024-01-30T13:58:20;12.23;;;6.20;;
80101;SDS011;69407;44.966;19.622;2024-01-30T14:00:46;12.05;;;6.38;;
80101;SDS011;69407;44.966;19.622;2024-01-30T14:03:11;13.23;;;7.78;;
80101;SDS011;69407;44.966;19.622;2024-01-30T14:05:36;11.30;;;5.17;;
80101;SDS011;69407;44.966;19.622;2024-01-30T14:08:02;11.25;;;6.70;;
80101;SDS011;69407;44.966;19.622;2024-01-30T14:10:27;11.80;;;5.78;;
80101;SDS011;69407;44.966;19.622;2024-01-30T14:12:52;9.25;;;5.72;;
80101;SDS011;69407;44.966;19.622;2024-01-30T14:15:18;11.80;;;5.50;;